sensor_id;sensor_type;location;lat;lon;timestamp;P1;durP1;ratioP1;P2;durP2;ratioP2
32611;SDS011;19030;49.478;8.986;2023-06-22T00:01:56;14.45;;;7.95;;
32611;SDS011;19030;49.478;8.986;2023-06-22T00:03:56;12.93;;;7.55;;
32611;SDS011;19030;49.478;8.986;2023-06-22T00:05:57;13.95;;;7.97;;
32611;SDS011;19030;49.478;8.986;2023-06-22T00:07:57;13.30;;;7.93;;
32611;SDS011;19030;49.478;8.986;2023-06-22T00:10:02;12.75;;;7.25;;
32611;SDS011;19030;49.478;8.986;2023-06-22T00:12:02;11.45;;;7.35;;
32611;SDS011;19030;49.478;8.986;2023-06-22T00:14:04;10.23;;;6.88;;
32611;SDS011;19030;49.478;8.986;2023-06-22T00:16:04;12.63;;;6.97;;
32611;SDS011;19030;49.478;8.986;2023-06-22T00:18:06;12.75;;;8.35;;
32611;SDS011;19030;49.478;8.986;2023-06-22T00:20:07;14.63;;;7.65;;
32611;SDS011;19030;49.478;8.986;2023-06-22T00:22:09;12.05;;;7.97;;
32611;SDS011;19030;49.478;8.986;2023-06-22T00:24:10;14.85;;;7.32;;
32611;SDS011;19030;49.478;8.986;2023-06-22T00:26:10;11.23;;;6.97;;
32611;SDS011;19030;49.478;8.986;2023-06-22T00:28:11;10.52;;;6.95;;
32611;SDS011;19030;49.478;8.986;2023-06-22T00:30:12;13.48;;;7.85;;
32611;SDS011;19030;49.478;8.986;2023-06-22T00:32:13;9.98;;;6.90;;
32611;SDS011;19030;49.478;8.986;2023-06-22T00:34:13;13.98;;;6.72;;
32611;SDS011;19030;49.478;8.986;2023-06-22T00:36:14;11.07;;;7.00;;
32611;SDS011;19030;49.478;8.986;2023-06-22T00:38:16;10.35;;;6.47;;
32611;SDS011;19030;49.478;8.986;2023-06-22T00:40:16;10.95;;;6.60;;
32611;SDS011;19030;49.478;8.986;2023-06-22T00:42:21;10.82;;;6.95;;
32611;SDS011;19030;49.478;8.986;2023-06-22T00:44:22;11.85;;;6.90;;
32611;SDS011;19030;49.478;8.986;2023-06-22T00:46:25;10.82;;;7.43;;
32611;SDS011;19030;49.478;8.986;2023-06-22T00:48:25;10.20;;;6.50;;
32611;SDS011;19030;49.478;8.986;2023-06-22T00:50:30;11.88;;;6.47;;
32611;SDS011;19030;49.478;8.986;2023-06-22T00:52:33;11.48;;;6.82;;
32611;SDS011;19030;49.478;8.986;2023-06-22T00:54:35;11.05;;;7.10;;
32611;SDS011;19030;49.478;8.986;2023-06-22T00:56:36;13.68;;;6.20;;
32611;SDS011;19030;49.478;8.986;2023-06-22T00:58:37;12.95;;;6.65;;
32611;SDS011;19030;49.478;8.986;2023-06-22T01:00:41;13.25;;;6.10;;
32611;SDS011;19030;49.478;8.986;2023-06-22T01:02:42;12.50;;;6.93;;
32611;SDS011;19030;49.478;8.986;2023-06-22T01:04:45;12.30;;;6.97;;
32611;SDS011;19030;49.478;8.986;2023-06-22T01:06:58;13.50;;;7.38;;
32611;SDS011;19030;49.478;8.986;2023-06-22T01:09:15;11.57;;;7.55;;
32611;SDS011;19030;49.478;8.986;2023-06-22T01:11:23;12.43;;;7.40;;
32611;SDS011;19030;49.478;8.986;2023-06-22T01:13:43;12.95;;;7.88;;
32611;SDS011;19030;49.478;8.986;2023-06-22T01:15:55;12.20;;;8.10;;
32611;SDS011;19030;49.478;8.986;2023-06-22T01:18:05;12.80;;;7.75;;
32611;SDS011;19030;49.478;8.986;2023-06-22T01:20:10;14.77;;;7.15;;
32611;SDS011;19030;49.478;8.986;2023-06-22T01:22:15;10.98;;;7.13;;
32611;SDS011;19030;49.478;8.986;2023-06-22T01:24:18;12.40;;;8.23;;
32611;SDS011;19030;49.478;8.986;2023-06-22T01:26:32;11.90;;;8.43;;
32611;SDS011;19030;49.478;8.986;2023-06-22T01:28:54;13.13;;;8.40;;
32611;SDS011;19030;49.478;8.986;2023-06-22T01:30:56;11.57;;;7.85;;
32611;SDS011;19030;49.478;8.986;2023-06-22T01:33:05;13.93;;;7.15;;
32611;SDS011;19030;49.478;8.986;2023-06-22T01:35:07;14.95;;;7.68;;
32611;SDS011;19030;49.478;8.986;2023-06-22T01:37:09;10.88;;;7.43;;
32611;SDS011;19030;49.478;8.986;2023-06-22T01:39:09;11.65;;;7.35;;
32611;SDS011;19030;49.478;8.986;2023-06-22T01:41:11;12.52;;;7.40;;
32611;SDS011;19030;49.478;8.986;2023-06-22T01:43:13;13.73;;;7.53;;
32611;SDS011;19030;49.478;8.986;2023-06-22T01:45:14;13.10;;;7.63;;
32611;SDS011;19030;49.478;8.986;2023-06-22T01:47:15;13.55;;;7.07;;
32611;SDS011;19030;49.478;8.986;2023-06-22T01:49:17;12.18;;;7.25;;
32611;SDS011;19030;49.478;8.986;2023-06-22T01:51:18;13.25;;;7.90;;
32611;SDS011;19030;49.478;8.986;2023-06-22T01:53:22;11.88;;;7.32;;
32611;SDS011;19030;49.478;8.986;2023-06-22T01:55:25;11.77;;;7.05;;
32611;SDS011;19030;49.478;8.986;2023-06-22T01:57:26;12.05;;;7.78;;
32611;SDS011;19030;49.478;8.986;2023-06-22T02:00:11;12.40;;;6.97;;
32611;SDS011;19030;49.478;8.986;2023-06-22T02:02:02;10.70;;;7.20;;
32611;SDS011;19030;49.478;8.986;2023-06-22T02:04:17;11.88;;;7.97;;
32611;SDS011;19030;49.478;8.986;2023-06-22T02:06:23;11.57;;;7.03;;
32611;SDS011;19030;49.478;8.986;2023-06-22T02:08:31;11.52;;;7.00;;
32611;SDS011;19030;49.478;8.986;2023-06-22T02:10:38;11.80;;;7.55;;
32611;SDS011;19030;49.478;8.986;2023-06-22T02:12:41;11.13;;;6.95;;
32611;SDS011;19030;49.478;8.986;2023-06-22T02:14:43;11.15;;;7.43;;
32611;SDS011;19030;49.478;8.986;2023-06-22T02:16:46;11.05;;;7.47;;
32611;SDS011;19030;49.478;8.986;2023-06-22T02:18:47;11.02;;;7.45;;
32611;SDS011;19030;49.478;8.986;2023-06-22T02:20:52;10.90;;;7.25;;
32611;SDS011;19030;49.478;8.986;2023-06-22T02:22:52;11.30;;;7.63;;
32611;SDS011;19030;49.478;8.986;2023-06-22T02:24:53;11.68;;;7.47;;
32611;SDS011;19030;49.478;8.986;2023-06-22T02:26:53;14.40;;;8.23;;
32611;SDS011;19030;49.478;8.986;2023-06-22T02:28:54;10.52;;;6.75;;
32611;SDS011;19030;49.478;8.986;2023-06-22T02:30:54;11.90;;;7.25;;
32611;SDS011;19030;49.478;8.986;2023-06-22T02:32:55;13.40;;;7.53;;
32611;SDS011;19030;49.478;8.986;2023-06-22T02:34:58;10.98;;;7.40;;
32611;SDS011;19030;49.478;8.986;2023-06-22T02:36:59;11.80;;;6.85;;
32611;SDS011;19030;49.478;8.986;2023-06-22T02:39:01;13.02;;;7.05;;
32611;SDS011;19030;49.478;8.986;2023-06-22T02:41:04;11.02;;;7.45;;
32611;SDS011;19030;49.478;8.986;2023-06-22T02:43:05;12.70;;;7.38;;
32611;SDS011;19030;49.478;8.986;2023-06-22T02:45:05;12.80;;;6.68;;
32611;SDS011;19030;49.478;8.986;2023-06-22T02:47:06;12.70;;;7.20;;
32611;SDS011;19030;49.478;8.986;2023-06-22T02:49:07;11.93;;;7.13;;
32611;SDS011;19030;49.478;8.986;2023-06-22T02:51:08;12.60;;;7.55;;
32611;SDS011;19030;49.478;8.986;2023-06-22T02:53:10;10.80;;;7.03;;
32611;SDS011;19030;49.478;8.986;2023-06-22T02:55:15;14.73;;;7.65;;
32611;SDS011;19030;49.478;8.986;2023-06-22T02:57:20;13.00;;;7.28;;
32611;SDS011;19030;49.478;8.986;2023-06-22T02:59:20;14.18;;;7.72;;
32611;SDS011;19030;49.478;8.986;2023-06-22T03:01:24;12.13;;;7.40;;
32611;SDS011;19030;49.478;8.986;2023-06-22T03:03:28;15.68;;;7.63;;
32611;SDS011;19030;49.478;8.986;2023-06-22T03:05:29;13.07;;;7.43;;
32611;SDS011;19030;49.478;8.986;2023-06-22T03:07:31;11.55;;;6.90;;
32611;SDS011;19030;49.478;8.986;2023-06-22T03:09:32;12.73;;;7.43;;
32611;SDS011;19030;49.478;8.986;2023-06-22T03:11:33;10.98;;;7.35;;
32611;SDS011;19030;49.478;8.986;2023-06-22T03:13:34;13.00;;;7.60;;
32611;SDS011;19030;49.478;8.986;2023-06-22T03:15:35;11.23;;;7.28;;
32611;SDS011;19030;49.478;8.986;2023-06-22T03:17:36;11.20;;;7.65;;
32611;SDS011;19030;49.478;8.986;2023-06-22T03:19:38;11.80;;;7.63;;
32611;SDS011;19030;49.478;8.986;2023-06-22T03:21:39;12.73;;;7.50;;
32611;SDS011;19030;49.478;8.986;2023-06-22T03:23:40;14.10;;;7.82;;
32611;SDS011;19030;49.478;8.986;2023-06-22T03:25:42;13.48;;;7.53;;
32611;SDS011;19030;49.478;8.986;2023-06-22T03:27:44;11.20;;;7.47;;
32611;SDS011;19030;49.478;8.986;2023-06-22T03:29:45;10.90;;;7.38;;
32611;SDS011;19030;49.478;8.986;2023-06-22T03:31:46;12.18;;;7.75;;
32611;SDS011;19030;49.478;8.986;2023-06-22T03:33:50;13.40;;;8.30;;
32611;SDS011;19030;49.478;8.986;2023-06-22T03:35:51;10.75;;;7.43;;
32611;SDS011;19030;49.478;8.986;2023-06-22T03:37:51;13.43;;;7.47;;
32611;SDS011;19030;49.478;8.986;2023-06-22T03:39:52;25.23;;;8.43;;
32611;SDS011;19030;49.478;8.986;2023-06-22T03:41:53;13.65;;;7.80;;
32611;SDS011;19030;49.478;8.986;2023-06-22T03:43:54;13.93;;;7.15;;
32611;SDS011;19030;49.478;8.986;2023-06-22T03:45:54;11.50;;;7.35;;
32611;SDS011;19030;49.478;8.986;2023-06-22T03:47:56;14.27;;;8.23;;
32611;SDS011;19030;49.478;8.986;2023-06-22T03:49:56;13.88;;;7.60;;
32611;SDS011;19030;49.478;8.986;2023-06-22T03:51:57;12.63;;;7.35;;
32611;SDS011;19030;49.478;8.986;2023-06-22T03:53:57;12.65;;;7.80;;
32611;SDS011;19030;49.478;8.986;2023-06-22T03:55:58;12.68;;;7.72;;
32611;SDS011;19030;49.478;8.986;2023-06-22T03:57:58;10.18;;;6.63;;
32611;SDS011;19030;49.478;8.986;2023-06-22T04:00:05;11.82;;;7.55;;
32611;SDS011;19030;49.478;8.986;2023-06-22T04:02:12;10.15;;;7.03;;
32611;SDS011;19030;49.478;8.986;2023-06-22T04:04:13;10.93;;;7.30;;
32611;SDS011;19030;49.478;8.986;2023-06-22T04:06:13;12.85;;;6.95;;
32611;SDS011;19030;49.478;8.986;2023-06-22T04:08:14;12.48;;;7.30;;
32611;SDS011;19030;49.478;8.986;2023-06-22T04:10:15;12.85;;;7.20;;
32611;SDS011;19030;49.478;8.986;2023-06-22T04:12:15;12.07;;;7.82;;
32611;SDS011;19030;49.478;8.986;2023-06-22T04:14:16;14.02;;;7.35;;
32611;SDS011;19030;49.478;8.986;2023-06-22T04:16:16;11.98;;;7.57;;
32611;SDS011;19030;49.478;8.986;2023-06-22T04:18:17;11.35;;;7.00;;
32611;SDS011;19030;49.478;8.986;2023-06-22T04:20:17;12.93;;;8.55;;
32611;SDS011;19030;49.478;8.986;2023-06-22T04:22:18;34.50;;;19.98;;
32611;SDS011;19030;49.478;8.986;2023-06-22T04:24:19;23.40;;;12.85;;
32611;SDS011;19030;49.478;8.986;2023-06-22T04:26:19;13.05;;;7.95;;
32611;SDS011;19030;49.478;8.986;2023-06-22T04:28:20;12.18;;;6.80;;
32611;SDS011;19030;49.478;8.986;2023-06-22T04:30:21;12.02;;;7.57;;
32611;SDS011;19030;49.478;8.986;2023-06-22T04:32:22;15.05;;;7.10;;
32611;SDS011;19030;49.478;8.986;2023-06-22T04:34:22;11.85;;;7.10;;
32611;SDS011;19030;49.478;8.986;2023-06-22T04:36:23;9.85;;;6.90;;
32611;SDS011;19030;49.478;8.986;2023-06-22T04:38:24;10.77;;;7.05;;
32611;SDS011;19030;49.478;8.986;2023-06-22T04:40:25;10.35;;;6.85;;
32611;SDS011;19030;49.478;8.986;2023-06-22T04:42:26;12.77;;;7.30;;
32611;SDS011;19030;49.478;8.986;2023-06-22T04:44:27;11.25;;;7.25;;
32611;SDS011;19030;49.478;8.986;2023-06-22T04:46:27;14.77;;;8.00;;
32611;SDS011;19030;49.478;8.986;2023-06-22T04:48:28;12.25;;;7.15;;
32611;SDS011;19030;49.478;8.986;2023-06-22T04:52:37;10.65;;;6.82;;
32611;SDS011;19030;49.478;8.986;2023-06-22T04:54:39;12.93;;;7.30;;
32611;SDS011;19030;49.478;8.986;2023-06-22T04:56:47;12.18;;;7.53;;
32611;SDS011;19030;49.478;8.986;2023-06-22T04:58:48;11.88;;;7.63;;
32611;SDS011;19030;49.478;8.986;2023-06-22T05:00:48;10.38;;;6.97;;
32611;SDS011;19030;49.478;8.986;2023-06-22T05:02:51;11.73;;;7.43;;
32611;SDS011;19030;49.478;8.986;2023-06-22T05:04:52;10.38;;;7.40;;
32611;SDS011;19030;49.478;8.986;2023-06-22T05:06:57;11.05;;;7.32;;
32611;SDS011;19030;49.478;8.986;2023-06-22T05:08:59;12.85;;;7.55;;
32611;SDS011;19030;49.478;8.986;2023-06-22T05:11:00;11.77;;;7.63;;
32611;SDS011;19030;49.478;8.986;2023-06-22T05:13:00;9.93;;;6.55;;
32611;SDS011;19030;49.478;8.986;2023-06-22T05:15:01;12.80;;;6.60;;
32611;SDS011;19030;49.478;8.986;2023-06-22T05:17:01;10.38;;;7.50;;
32611;SDS011;19030;49.478;8.986;2023-06-22T05:19:03;12.27;;;7.30;;
32611;SDS011;19030;49.478;8.986;2023-06-22T05:21:04;12.18;;;7.90;;
32611;SDS011;19030;49.478;8.986;2023-06-22T05:23:05;11.10;;;7.00;;
32611;SDS011;19030;49.478;8.986;2023-06-22T05:25:07;12.65;;;6.60;;
32611;SDS011;19030;49.478;8.986;2023-06-22T05:27:09;10.00;;;7.43;;
32611;SDS011;19030;49.478;8.986;2023-06-22T05:29:10;10.30;;;7.70;;
32611;SDS011;19030;49.478;8.986;2023-06-22T05:31:11;12.25;;;7.30;;
32611;SDS011;19030;49.478;8.986;2023-06-22T05:33:13;9.77;;;6.60;;
32611;SDS011;19030;49.478;8.986;2023-06-22T05:35:13;12.15;;;7.70;;
32611;SDS011;19030;49.478;8.986;2023-06-22T05:37:14;9.77;;;7.72;;
32611;SDS011;19030;49.478;8.986;2023-06-22T05:39:14;11.20;;;8.43;;
32611;SDS011;19030;49.478;8.986;2023-06-22T05:41:15;9.90;;;7.63;;
32611;SDS011;19030;49.478;8.986;2023-06-22T05:43:16;10.35;;;8.35;;
32611;SDS011;19030;49.478;8.986;2023-06-22T05:45:16;11.60;;;7.47;;
32611;SDS011;19030;49.478;8.986;2023-06-22T05:47:17;10.10;;;7.50;;
32611;SDS011;19030;49.478;8.986;2023-06-22T05:49:17;11.68;;;8.20;;
32611;SDS011;19030;49.478;8.986;2023-06-22T05:51:18;11.45;;;7.65;;
32611;SDS011;19030;49.478;8.986;2023-06-22T05:53:19;9.57;;;7.25;;
32611;SDS011;19030;49.478;8.986;2023-06-22T05:55:19;12.50;;;7.22;;
32611;SDS011;19030;49.478;8.986;2023-06-22T05:57:20;10.95;;;8.30;;
32611;SDS011;19030;49.478;8.986;2023-06-22T05:59:21;10.73;;;8.35;;
32611;SDS011;19030;49.478;8.986;2023-06-22T06:01:22;12.25;;;7.75;;
32611;SDS011;19030;49.478;8.986;2023-06-22T06:03:22;11.93;;;7.05;;
32611;SDS011;19030;49.478;8.986;2023-06-22T06:05:23;13.18;;;8.23;;
32611;SDS011;19030;49.478;8.986;2023-06-22T06:07:25;12.57;;;7.72;;
32611;SDS011;19030;49.478;8.986;2023-06-22T06:09:26;9.93;;;7.15;;
32611;SDS011;19030;49.478;8.986;2023-06-22T06:11:26;10.68;;;7.53;;
32611;SDS011;19030;49.478;8.986;2023-06-22T06:13:27;10.60;;;7.90;;
32611;SDS011;19030;49.478;8.986;2023-06-22T06:15:28;10.90;;;7.97;;
32611;SDS011;19030;49.478;8.986;2023-06-22T06:17:28;12.45;;;8.23;;
32611;SDS011;19030;49.478;8.986;2023-06-22T06:19:29;11.68;;;7.65;;
32611;SDS011;19030;49.478;8.986;2023-06-22T06:21:29;11.07;;;8.02;;
32611;SDS011;19030;49.478;8.986;2023-06-22T06:23:30;11.80;;;7.78;;
32611;SDS011;19030;49.478;8.986;2023-06-22T06:25:30;13.05;;;8.15;;
32611;SDS011;19030;49.478;8.986;2023-06-22T06:27:31;11.68;;;8.15;;
32611;SDS011;19030;49.478;8.986;2023-06-22T06:29:32;11.95;;;7.95;;
32611;SDS011;19030;49.478;8.986;2023-06-22T06:31:32;12.75;;;9.00;;
32611;SDS011;19030;49.478;8.986;2023-06-22T06:33:33;11.93;;;8.00;;
32611;SDS011;19030;49.478;8.986;2023-06-22T06:35:34;12.48;;;8.07;;
32611;SDS011;19030;49.478;8.986;2023-06-22T06:37:35;11.30;;;8.30;;
32611;SDS011;19030;49.478;8.986;2023-06-22T06:39:37;12.27;;;8.98;;
32611;SDS011;19030;49.478;8.986;2023-06-22T06:41:38;10.27;;;8.57;;
32611;SDS011;19030;49.478;8.986;2023-06-22T06:43:44;13.80;;;9.60;;
32611;SDS011;19030;49.478;8.986;2023-06-22T06:45:45;10.30;;;8.80;;
32611;SDS011;19030;49.478;8.986;2023-06-22T06:47:46;10.27;;;8.18;;
32611;SDS011;19030;49.478;8.986;2023-06-22T06:49:47;11.85;;;8.82;;
32611;SDS011;19030;49.478;8.986;2023-06-22T06:51:47;13.93;;;12.52;;
32611;SDS011;19030;49.478;8.986;2023-06-22T06:53:48;14.05;;;12.48;;
32611;SDS011;19030;49.478;8.986;2023-06-22T06:55:48;18.88;;;17.08;;
32611;SDS011;19030;49.478;8.986;2023-06-22T06:57:49;19.80;;;18.10;;
32611;SDS011;19030;49.478;8.986;2023-06-22T06:59:56;14.70;;;9.65;;
32611;SDS011;19030;49.478;8.986;2023-06-22T07:01:57;12.13;;;9.20;;
32611;SDS011;19030;49.478;8.986;2023-06-22T07:03:58;14.18;;;12.77;;
32611;SDS011;19030;49.478;8.986;2023-06-22T07:05:59;12.80;;;8.80;;
32611;SDS011;19030;49.478;8.986;2023-06-22T07:07:59;15.35;;;10.00;;
32611;SDS011;19030;49.478;8.986;2023-06-22T07:10:00;14.07;;;12.35;;
32611;SDS011;19030;49.478;8.986;2023-06-22T07:12:01;13.85;;;12.55;;
32611;SDS011;19030;49.478;8.986;2023-06-22T07:14:02;13.85;;;9.30;;
32611;SDS011;19030;49.478;8.986;2023-06-22T07:16:02;12.25;;;9.15;;
32611;SDS011;19030;49.478;8.986;2023-06-22T07:18:03;11.23;;;8.65;;
32611;SDS011;19030;49.478;8.986;2023-06-22T07:20:04;12.57;;;9.13;;
32611;SDS011;19030;49.478;8.986;2023-06-22T07:22:10;11.82;;;8.90;;
32611;SDS011;19030;49.478;8.986;2023-06-22T07:24:10;12.02;;;8.45;;
32611;SDS011;19030;49.478;8.986;2023-06-22T07:26:11;9.45;;;8.10;;
32611;SDS011;19030;49.478;8.986;2023-06-22T07:28:12;10.13;;;8.23;;
32611;SDS011;19030;49.478;8.986;2023-06-22T07:30:13;12.02;;;8.35;;
32611;SDS011;19030;49.478;8.986;2023-06-22T07:32:13;12.82;;;7.72;;
32611;SDS011;19030;49.478;8.986;2023-06-22T07:34:15;13.80;;;9.23;;
32611;SDS011;19030;49.478;8.986;2023-06-22T07:36:16;10.88;;;8.70;;
32611;SDS011;19030;49.478;8.986;2023-06-22T07:38:17;12.65;;;8.07;;
32611;SDS011;19030;49.478;8.986;2023-06-22T07:40:18;11.30;;;7.70;;
32611;SDS011;19030;49.478;8.986;2023-06-22T07:42:18;11.55;;;7.90;;
32611;SDS011;19030;49.478;8.986;2023-06-22T07:44:19;13.15;;;8.45;;
32611;SDS011;19030;49.478;8.986;2023-06-22T07:46:20;11.05;;;8.15;;
32611;SDS011;19030;49.478;8.986;2023-06-22T07:48:21;11.63;;;8.45;;
32611;SDS011;19030;49.478;8.986;2023-06-22T07:50:22;10.35;;;8.20;;
32611;SDS011;19030;49.478;8.986;2023-06-22T07:52:23;10.00;;;7.78;;
32611;SDS011;19030;49.478;8.986;2023-06-22T07:54:25;11.55;;;8.88;;
32611;SDS011;19030;49.478;8.986;2023-06-22T07:56:25;11.40;;;8.30;;
32611;SDS011;19030;49.478;8.986;2023-06-22T07:58:26;10.07;;;7.70;;
32611;SDS011;19030;49.478;8.986;2023-06-22T08:00:26;12.13;;;7.75;;
32611;SDS011;19030;49.478;8.986;2023-06-22T08:02:27;11.68;;;7.85;;
32611;SDS011;19030;49.478;8.986;2023-06-22T08:04:28;12.80;;;7.93;;
32611;SDS011;19030;49.478;8.986;2023-06-22T08:06:29;11.30;;;7.50;;
32611;SDS011;19030;49.478;8.986;2023-06-22T08:08:31;10.43;;;8.88;;
32611;SDS011;19030;49.478;8.986;2023-06-22T08:10:31;11.50;;;7.75;;
32611;SDS011;19030;49.478;8.986;2023-06-22T08:12:32;10.95;;;7.70;;
32611;SDS011;19030;49.478;8.986;2023-06-22T08:14:33;13.70;;;7.32;;
32611;SDS011;19030;49.478;8.986;2023-06-22T08:16:37;13.85;;;8.07;;
32611;SDS011;19030;49.478;8.986;2023-06-22T08:18:38;14.25;;;7.50;;
32611;SDS011;19030;49.478;8.986;2023-06-22T08:20:39;9.93;;;7.18;;
32611;SDS011;19030;49.478;8.986;2023-06-22T08:22:40;11.50;;;7.93;;
32611;SDS011;19030;49.478;8.986;2023-06-22T08:24:41;12.00;;;7.18;;
32611;SDS011;19030;49.478;8.986;2023-06-22T08:26:42;10.80;;;7.72;;
32611;SDS011;19030;49.478;8.986;2023-06-22T08:28:42;9.57;;;6.47;;
32611;SDS011;19030;49.478;8.986;2023-06-22T08:30:43;12.60;;;7.50;;
32611;SDS011;19030;49.478;8.986;2023-06-22T08:32:44;10.20;;;7.43;;
32611;SDS011;19030;49.478;8.986;2023-06-22T08:34:45;8.25;;;6.35;;
32611;SDS011;19030;49.478;8.986;2023-06-22T08:36:45;10.15;;;7.10;;
32611;SDS011;19030;49.478;8.986;2023-06-22T08:38:52;10.23;;;7.53;;
32611;SDS011;19030;49.478;8.986;2023-06-22T08:40:53;9.77;;;6.95;;
32611;SDS011;19030;49.478;8.986;2023-06-22T08:42:53;11.90;;;7.57;;
32611;SDS011;19030;49.478;8.986;2023-06-22T08:44:55;12.98;;;7.95;;
32611;SDS011;19030;49.478;8.986;2023-06-22T08:46:55;12.43;;;7.68;;
32611;SDS011;19030;49.478;8.986;2023-06-22T08:48:56;10.18;;;6.72;;
32611;SDS011;19030;49.478;8.986;2023-06-22T08:50:57;12.10;;;7.43;;
32611;SDS011;19030;49.478;8.986;2023-06-22T08:52:58;10.77;;;7.18;;
32611;SDS011;19030;49.478;8.986;2023-06-22T08:54:59;10.80;;;7.03;;
32611;SDS011;19030;49.478;8.986;2023-06-22T08:57:00;9.68;;;6.40;;
32611;SDS011;19030;49.478;8.986;2023-06-22T08:59:01;12.15;;;7.47;;
32611;SDS011;19030;49.478;8.986;2023-06-22T09:01:01;10.73;;;7.35;;
32611;SDS011;19030;49.478;8.986;2023-06-22T09:03:02;10.25;;;7.22;;
32611;SDS011;19030;49.478;8.986;2023-06-22T09:05:03;10.68;;;7.30;;
32611;SDS011;19030;49.478;8.986;2023-06-22T09:07:04;11.00;;;6.75;;
32611;SDS011;19030;49.478;8.986;2023-06-22T09:09:05;11.90;;;6.70;;
32611;SDS011;19030;49.478;8.986;2023-06-22T09:11:06;9.77;;;7.03;;
32611;SDS011;19030;49.478;8.986;2023-06-22T09:13:06;12.10;;;6.97;;
32611;SDS011;19030;49.478;8.986;2023-06-22T09:15:07;12.63;;;6.95;;
32611;SDS011;19030;49.478;8.986;2023-06-22T09:17:08;10.63;;;6.90;;
32611;SDS011;19030;49.478;8.986;2023-06-22T09:19:08;10.02;;;7.03;;
32611;SDS011;19030;49.478;8.986;2023-06-22T09:21:09;9.48;;;6.57;;
32611;SDS011;19030;49.478;8.986;2023-06-22T09:23:09;15.48;;;6.70;;
32611;SDS011;19030;49.478;8.986;2023-06-22T09:25:10;11.10;;;6.70;;
32611;SDS011;19030;49.478;8.986;2023-06-22T09:27:11;10.35;;;6.63;;
32611;SDS011;19030;49.478;8.986;2023-06-22T09:29:11;12.15;;;6.57;;
32611;SDS011;19030;49.478;8.986;2023-06-22T09:31:12;11.60;;;6.97;;
32611;SDS011;19030;49.478;8.986;2023-06-22T09:33:13;13.23;;;6.82;;
32611;SDS011;19030;49.478;8.986;2023-06-22T09:35:14;12.85;;;7.10;;
32611;SDS011;19030;49.478;8.986;2023-06-22T09:37:14;12.95;;;7.50;;
32611;SDS011;19030;49.478;8.986;2023-06-22T09:39:15;12.23;;;7.35;;
32611;SDS011;19030;49.478;8.986;2023-06-22T09:41:16;15.43;;;7.60;;
32611;SDS011;19030;49.478;8.986;2023-06-22T09:43:17;11.45;;;6.82;;
32611;SDS011;19030;49.478;8.986;2023-06-22T09:45:17;11.75;;;6.18;;
32611;SDS011;19030;49.478;8.986;2023-06-22T09:47:18;11.55;;;6.57;;
32611;SDS011;19030;49.478;8.986;2023-06-22T09:49:19;10.57;;;7.43;;
32611;SDS011;19030;49.478;8.986;2023-06-22T09:51:19;10.50;;;7.20;;
32611;SDS011;19030;49.478;8.986;2023-06-22T09:53:21;16.48;;;6.68;;
32611;SDS011;19030;49.478;8.986;2023-06-22T09:55:22;13.50;;;7.20;;
32611;SDS011;19030;49.478;8.986;2023-06-22T09:57:23;13.15;;;6.57;;
32611;SDS011;19030;49.478;8.986;2023-06-22T09:59:23;10.38;;;6.88;;
32611;SDS011;19030;49.478;8.986;2023-06-22T10:01:24;17.20;;;6.40;;
32611;SDS011;19030;49.478;8.986;2023-06-22T10:03:24;10.85;;;6.97;;
32611;SDS011;19030;49.478;8.986;2023-06-22T10:05:25;15.68;;;7.40;;
32611;SDS011;19030;49.478;8.986;2023-06-22T10:07:26;12.52;;;7.32;;
32611;SDS011;19030;49.478;8.986;2023-06-22T10:09:27;13.07;;;6.95;;
32611;SDS011;19030;49.478;8.986;2023-06-22T10:11:27;13.20;;;6.68;;
32611;SDS011;19030;49.478;8.986;2023-06-22T10:13:30;11.43;;;6.88;;
32611;SDS011;19030;49.478;8.986;2023-06-22T10:15:30;9.98;;;6.50;;
32611;SDS011;19030;49.478;8.986;2023-06-22T10:17:31;12.13;;;6.90;;
32611;SDS011;19030;49.478;8.986;2023-06-22T10:19:31;14.75;;;6.78;;
32611;SDS011;19030;49.478;8.986;2023-06-22T10:21:32;10.93;;;6.50;;
32611;SDS011;19030;49.478;8.986;2023-06-22T10:23:33;12.27;;;7.45;;
32611;SDS011;19030;49.478;8.986;2023-06-22T10:25:34;9.65;;;6.05;;
32611;SDS011;19030;49.478;8.986;2023-06-22T10:27:34;11.93;;;6.55;;
32611;SDS011;19030;49.478;8.986;2023-06-22T10:29:35;10.27;;;6.40;;
32611;SDS011;19030;49.478;8.986;2023-06-22T10:31:36;11.32;;;6.57;;
32611;SDS011;19030;49.478;8.986;2023-06-22T10:33:36;12.70;;;6.68;;
32611;SDS011;19030;49.478;8.986;2023-06-22T10:35:37;12.65;;;7.35;;
32611;SDS011;19030;49.478;8.986;2023-06-22T10:37:38;10.23;;;6.40;;
32611;SDS011;19030;49.478;8.986;2023-06-22T10:39:38;12.85;;;6.72;;
32611;SDS011;19030;49.478;8.986;2023-06-22T10:41:39;16.48;;;6.93;;
32611;SDS011;19030;49.478;8.986;2023-06-22T10:43:39;12.18;;;6.95;;
32611;SDS011;19030;49.478;8.986;2023-06-22T10:45:40;15.27;;;7.68;;
32611;SDS011;19030;49.478;8.986;2023-06-22T10:47:40;14.18;;;6.80;;
32611;SDS011;19030;49.478;8.986;2023-06-22T10:49:42;12.88;;;6.47;;
32611;SDS011;19030;49.478;8.986;2023-06-22T10:51:42;10.40;;;5.95;;
32611;SDS011;19030;49.478;8.986;2023-06-22T10:53:43;12.93;;;6.50;;
32611;SDS011;19030;49.478;8.986;2023-06-22T10:55:44;11.60;;;6.45;;
32611;SDS011;19030;49.478;8.986;2023-06-22T10:57:44;12.45;;;6.60;;
32611;SDS011;19030;49.478;8.986;2023-06-22T10:59:47;10.70;;;6.93;;
32611;SDS011;19030;49.478;8.986;2023-06-22T11:01:47;10.38;;;6.05;;
32611;SDS011;19030;49.478;8.986;2023-06-22T11:03:48;10.60;;;6.70;;
32611;SDS011;19030;49.478;8.986;2023-06-22T11:05:48;13.55;;;6.70;;
32611;SDS011;19030;49.478;8.986;2023-06-22T11:07:49;10.75;;;6.13;;
32611;SDS011;19030;49.478;8.986;2023-06-22T11:09:52;14.90;;;6.63;;
32611;SDS011;19030;49.478;8.986;2023-06-22T11:11:52;13.13;;;6.93;;
32611;SDS011;19030;49.478;8.986;2023-06-22T11:13:53;10.38;;;6.72;;
32611;SDS011;19030;49.478;8.986;2023-06-22T11:15:54;10.85;;;6.55;;
32611;SDS011;19030;49.478;8.986;2023-06-22T11:17:54;11.27;;;6.47;;
32611;SDS011;19030;49.478;8.986;2023-06-22T11:19:55;11.85;;;6.13;;
32611;SDS011;19030;49.478;8.986;2023-06-22T11:21:55;10.30;;;5.93;;
32611;SDS011;19030;49.478;8.986;2023-06-22T11:23:56;10.90;;;6.40;;
32611;SDS011;19030;49.478;8.986;2023-06-22T11:25:58;10.18;;;6.13;;
32611;SDS011;19030;49.478;8.986;2023-06-22T11:27:59;13.27;;;6.38;;
32611;SDS011;19030;49.478;8.986;2023-06-22T11:29:59;12.82;;;6.50;;
32611;SDS011;19030;49.478;8.986;2023-06-22T11:32:00;10.75;;;6.32;;
32611;SDS011;19030;49.478;8.986;2023-06-22T11:34:01;14.05;;;6.28;;
32611;SDS011;19030;49.478;8.986;2023-06-22T11:36:02;10.05;;;5.60;;
32611;SDS011;19030;49.478;8.986;2023-06-22T11:38:02;11.95;;;5.55;;
32611;SDS011;19030;49.478;8.986;2023-06-22T11:40:05;13.98;;;6.35;;
32611;SDS011;19030;49.478;8.986;2023-06-22T11:42:09;12.63;;;6.85;;
32611;SDS011;19030;49.478;8.986;2023-06-22T11:44:10;14.45;;;6.40;;
32611;SDS011;19030;49.478;8.986;2023-06-22T11:46:10;11.60;;;6.50;;
32611;SDS011;19030;49.478;8.986;2023-06-22T11:48:11;18.73;;;6.63;;
32611;SDS011;19030;49.478;8.986;2023-06-22T11:50:12;12.10;;;6.25;;
32611;SDS011;19030;49.478;8.986;2023-06-22T11:52:12;9.27;;;5.82;;
32611;SDS011;19030;49.478;8.986;2023-06-22T11:54:13;9.82;;;5.53;;
32611;SDS011;19030;49.478;8.986;2023-06-22T11:56:13;11.88;;;6.38;;
32611;SDS011;19030;49.478;8.986;2023-06-22T11:58:14;10.75;;;6.05;;
32611;SDS011;19030;49.478;8.986;2023-06-22T12:00:15;11.20;;;6.22;;
32611;SDS011;19030;49.478;8.986;2023-06-22T12:02:16;14.00;;;6.00;;
32611;SDS011;19030;49.478;8.986;2023-06-22T12:04:16;11.63;;;5.63;;
32611;SDS011;19030;49.478;8.986;2023-06-22T12:06:18;10.52;;;5.82;;